Weather at Copenhagen Kastrup Airport

Public forecast

Using degrees Celsius for public forecast. Weather courtesy of forecast.io.

Current aviation weather report (METAR) for Copenhagen Kastrup Airport

Retrieved 2021/10/19 20:20 UTC (0 seconds ago):

EKCH 192020Z 19015KT 3500 RA BKN005 13/13 Q1007 NOSIG

Aviation forecast (TAF) for Copenhagen Kastrup Airport

Retrieved 2021/10/19 18:31 UTC (2 hours ago):

TAF EKCH 191701Z 1918/2018 20012KT 3000 RADZ BR BKN004 TEMPO 1918/1921 6000 NSW BKN012 BECMG 1921/1923 24022KT 6000 NSW BKN020 TEMPO 1923/2006 4000 BR BKN008